Tropical Cyclones
[Index]
Main Index Home Page Stock Weather Photos Extreme Storms Discussion Storm News and Storm Chasing Reports Tropical Cyclones / Hurricanes / Typhoons Weather Data and Links Wild Fires / Bushfires Weather Observation Techniques Weather Picture Catalogue Tornado Pictures and Reports Stock Video Footage and DVDs for sale
Season 2013-2014 Tropical Cyclone COLIN Track Map
Season 2013-2014 Summaries (Operational Data): [AU] [SIO] [SPAC] [SH]
<<- Previous TC | 2013-2014 Season | Next TC ->>

click for intensity scale information  Lat/long Grid: Show Hide

 Date Labels: Show Hide

Operational Tropical Cyclone Data : JTWC Advisories

Name: COLIN
Number: 1408

06 Jan 2014 06:00 UTC to 17 Jan 2014 06:00 UTC

    date/time    lat    long     hPa   cat  kts
2014-01-06 06   10.1   106.7    1010         15          
2014-01-06 12   10.1   106.0    1010         15          
2014-01-06 18   10.3   105.4    1010         15          
2014-01-07 00   11.0   104.8    1010         15          
2014-01-07 06   11.6   104.0    1007         15          
2014-01-07 12   11.7   102.2    1007         20          
2014-01-07 18   11.2   100.4    1004         25          
2014-01-08 00   11.1    98.9    1004         25          
2014-01-08 06   11.1    96.7    1004         25          
2014-01-08 12   10.6    94.6    1004         25          
2014-01-08 18   10.4    93.3    1000         30          
2014-01-09 00   10.6    91.6    1000         30          
2014-01-09 06   10.9    89.9    1000         30          
2014-01-09 12   11.6    87.6    1000         30          
2014-01-09 18   11.9    86.3     996    1    35          
2014-01-10 00   12.4    84.8     996    1    35          
2014-01-10 06   12.9    83.7     996    1    35          
2014-01-10 12   13.4    82.8     993    1    40          
2014-01-10 18   14.0    82.0     989    1    45          
2014-01-11 00   15.5    81.0     989    1    45          
2014-01-11 06   16.3    80.4     974    3    65          
2014-01-11 12   16.7    79.7     956    4    90          
2014-01-11 18   17.1    79.2     937    5   115          
2014-01-12 00   17.7    78.7     937    5   115          
2014-01-12 06   18.2    78.2     937    5   115          
2014-01-12 12   19.3    77.5     944    5   115          
2014-01-12 18   20.1    76.8     948    4   100          
2014-01-13 00   21.2    75.9     959    3    85          
2014-01-13 06   22.6    74.9     963    3    80          
2014-01-13 12   23.9    74.1     974    3    65          
2014-01-13 18   24.9    73.6     978    2    60          
2014-01-14 00   25.8    73.4     989    1    45          
2014-01-14 06   26.7    73.3     993    1    40          
2014-01-14 12   27.7    73.3     993    1    40          
2014-01-14 18   28.5    73.6     993    1    40          
2014-01-15 00   29.6    74.2     993    1    40          
2014-01-15 06   30.5    75.5     993    1    40          
2014-01-15 12   31.8    77.7     996    1    35          
2014-01-15 18   33.2    80.4     996    1    35          
2014-01-16 00   35.0    84.0     996    1    35          
2014-01-16 06   37.4    86.7                             
2014-01-16 12   39.4    91.1                             
2014-01-16 18   40.4    94.6                             
2014-01-17 00   41.8   100.3                             
2014-01-17 06   44.7   105.9                             
Winds are 10-min average.

Tropical cyclone tracks developed by Michael Bath using operational warnings and advisories and Google Maps.


[Australian Severe Weather index] [Copyright Notice] [Email Contacts] [Search This Site] [Privacy Policy]
Document: tropical_cyclone_colin.htm Updated: 2 May 2017